createdAt,value
2023-05-08T00:00:08.226Z,101805.44
2023-05-08T00:02:56.924Z,101808.97
2023-05-08T00:05:27.427Z,101811.63
2023-05-08T00:08:01.369Z,101813.44
2023-05-08T00:10:30.957Z,101809.91
2023-05-08T00:12:59.713Z,101815.22
2023-05-08T00:15:28.666Z,101810.06
2023-05-08T00:17:57.334Z,101819.69
2023-05-08T00:20:27.999Z,101811.91
2023-05-08T00:22:57.929Z,101812.81
2023-05-08T00:25:28.235Z,101812.03
2023-05-08T00:27:57.440Z,101819.00
2023-05-08T00:30:26.808Z,101821.72
2023-05-08T00:32:55.700Z,101819.09
2023-05-08T00:35:24.855Z,101816.53
2023-05-08T00:37:54.863Z,101817.41
2023-05-08T00:40:23.971Z,101824.47
2023-05-08T00:42:52.674Z,101828.09
2023-05-08T00:45:22.030Z,101826.38
2023-05-08T00:47:52.702Z,101830.66
2023-05-08T00:50:21.896Z,101828.97
2023-05-08T00:52:51.617Z,101834.19
2023-05-08T00:55:23.162Z,101835.03
2023-05-08T00:57:53.404Z,101841.19
2023-05-08T01:00:23.371Z,101840.38
2023-05-08T01:02:52.803Z,101842.94
2023-05-08T01:05:21.857Z,101847.34
2023-05-08T01:07:50.917Z,101856.00
2023-05-08T01:10:21.315Z,101846.50
2023-05-08T01:13:06.489Z,101855.25
2023-05-08T01:15:48.689Z,101853.56
2023-05-08T01:18:29.169Z,101860.53
2023-05-08T01:21:08.343Z,101854.47
2023-05-08T01:24:29.168Z,101855.41
2023-05-08T01:27:41.826Z,101864.22
2023-05-08T01:30:50.690Z,101865.13
2023-05-08T01:33:28.279Z,101863.47
2023-05-08T01:36:12.694Z,101863.47
2023-05-08T01:38:53.077Z,101866.13
2023-05-08T01:41:29.295Z,101866.94
2023-05-08T01:44:13.905Z,101865.19
2023-05-08T01:46:49.168Z,101861.81
2023-05-08T01:49:27.500Z,101869.66
2023-05-08T01:52:05.622Z,101863.56
2023-05-08T01:54:43.927Z,101870.50
2023-05-08T01:57:15.618Z,101870.53
2023-05-08T01:59:47.670Z,101869.66
2023-05-08T02:02:19.055Z,101865.38
2023-05-08T02:04:53.300Z,101868.03
2023-05-08T02:07:25.112Z,101874.97
2023-05-08T02:09:59.074Z,101878.47
2023-05-08T02:12:29.981Z,101872.41
2023-05-08T02:15:01.421Z,101877.56
2023-05-08T02:17:51.739Z,101888.91
2023-05-08T02:20:23.688Z,101880.22
2023-05-08T02:22:53.106Z,101882.00
2023-05-08T02:25:23.360Z,101878.53
2023-05-08T02:27:56.590Z,101876.06
2023-05-08T02:30:27.576Z,101881.25
2023-05-08T02:33:00.837Z,101877.88
2023-05-08T02:35:33.230Z,101876.16
2023-05-08T02:38:04.009Z,101878.00
2023-05-08T02:40:34.264Z,101880.63
2023-05-08T02:43:03.050Z,101879.81
2023-05-08T02:45:44.681Z,101874.69
2023-05-08T02:48:23.921Z,101876.47
2023-05-08T02:51:04.150Z,101880.00
2023-05-08T02:53:38.917Z,101873.97
2023-05-08T02:56:18.810Z,101887.88
2023-05-08T02:58:59.932Z,101885.31
2023-05-08T03:01:37.386Z,101882.78
2023-05-08T03:04:12.306Z,101888.84
2023-05-08T03:06:48.023Z,101887.97
2023-05-08T03:09:21.621Z,101882.75
2023-05-08T03:12:00.462Z,101889.66
2023-05-08T03:14:33.410Z,101893.06
2023-05-08T03:17:08.786Z,101900.88
2023-05-08T03:19:40.366Z,101894.00
2023-05-08T03:22:12.583Z,101899.16
2023-05-08T03:24:45.248Z,101899.09
2023-05-08T03:27:17.158Z,101899.94
2023-05-08T03:29:47.844Z,101904.25
2023-05-08T03:32:19.382Z,101907.72
2023-05-08T03:34:50.396Z,101913.81
2023-05-08T03:37:21.258Z,101914.59
2023-05-08T03:39:50.157Z,101908.47
2023-05-08T03:42:22.136Z,101904.09
2023-05-08T03:44:53.522Z,101904.03
2023-05-08T03:47:24.271Z,101904.94
2023-05-08T03:49:54.178Z,101907.56
2023-05-08T03:52:25.747Z,101898.78
2023-05-08T03:54:54.731Z,101897.81
2023-05-08T03:57:32.554Z,101902.13
2023-05-08T04:00:10.083Z,101902.09
2023-05-08T04:03:09.182Z,101904.53
2023-05-08T04:05:48.961Z,101909.66
2023-05-08T04:08:27.103Z,101912.09
2023-05-08T04:11:07.597Z,101917.19
2023-05-08T04:13:46.986Z,101917.06
2023-05-08T04:16:25.051Z,101923.91
2023-05-08T04:19:03.401Z,101931.53
2023-05-08T04:21:37.426Z,101932.25
2023-05-08T04:24:13.583Z,101931.19
2023-05-08T04:26:44.202Z,101943.22
2023-05-08T04:29:14.325Z,101944.72
2023-05-08T04:31:44.468Z,101947.09
2023-05-08T04:34:14.905Z,101944.28
2023-05-08T04:36:44.134Z,101948.38
2023-05-08T04:39:14.554Z,101948.09
2023-05-08T04:41:44.117Z,101957.41
2023-05-08T04:44:14.539Z,101956.25
2023-05-08T04:46:43.491Z,101960.38
2023-05-08T04:49:12.646Z,101960.94
2023-05-08T04:51:41.268Z,101957.22
2023-05-08T04:54:10.419Z,101961.19
2023-05-08T04:56:40.486Z,101955.72
2023-05-08T04:59:09.418Z,101959.69
2023-05-08T05:01:38.169Z,101954.97
2023-05-08T05:04:07.395Z,101964.19
2023-05-08T05:06:36.103Z,101973.31
2023-05-08T05:09:05.442Z,101971.31
2023-05-08T05:11:34.534Z,101965.72
2023-05-08T05:14:04.925Z,101973.94
2023-05-08T05:16:33.756Z,101982.34
2023-05-08T05:19:02.755Z,101979.19
2023-05-08T05:21:31.723Z,101982.28
2023-05-08T05:24:00.813Z,101979.88
2023-05-08T05:26:29.542Z,101982.00
2023-05-08T05:28:58.644Z,101987.53
2023-05-08T05:31:29.939Z,101979.72
2023-05-08T05:33:59.639Z,101977.25
2023-05-08T05:36:29.394Z,101980.72
2023-05-08T05:38:58.780Z,101989.59
2023-05-08T05:41:27.786Z,101991.81
2023-05-08T05:43:56.833Z,101992.13
2023-05-08T05:46:32.303Z,101989.16
2023-05-08T05:49:04.975Z,101990.63
2023-05-08T05:51:35.463Z,101993.19
2023-05-08T05:54:04.924Z,102001.31
2023-05-08T05:56:33.559Z,101999.31
2023-05-08T05:59:02.756Z,101994.94
2023-05-08T06:01:31.799Z,101992.50
2023-05-08T06:04:00.935Z,101990.00
2023-05-08T06:06:32.045Z,101999.59
2023-05-08T06:09:01.532Z,101998.16
2023-05-08T06:11:30.273Z,101988.84
2023-05-08T06:13:59.267Z,101998.34
2023-05-08T06:16:28.101Z,102003.84
2023-05-08T06:18:57.186Z,102001.38
2023-05-08T06:21:28.723Z,101994.13
2023-05-08T06:23:58.980Z,102000.28
2023-05-08T06:26:27.706Z,101994.69
2023-05-08T06:28:56.825Z,102000.16
2023-05-08T06:31:25.619Z,102004.09
2023-05-08T06:33:54.672Z,102002.94
2023-05-08T06:36:23.378Z,102002.03
2023-05-08T06:38:53.484Z,102008.78
2023-05-08T06:41:23.482Z,102005.66
2023-05-08T06:43:52.357Z,102000.59
2023-05-08T06:46:21.774Z,102002.91
2023-05-08T06:48:50.926Z,102001.78
2023-05-08T06:51:23.195Z,101999.25
2023-05-08T06:53:52.166Z,101999.41
2023-05-08T06:56:21.216Z,102000.25
2023-05-08T06:59:04.577Z,102008.44
2023-05-08T07:01:37.536Z,102003.78
2023-05-08T07:04:06.991Z,102000.78
2023-05-08T07:06:35.694Z,102004.88
2023-05-08T07:09:04.784Z,102002.81
2023-05-08T07:11:33.648Z,102011.19
2023-05-08T07:14:04.064Z,102008.28
2023-05-08T07:16:32.915Z,102003.66
2023-05-08T07:19:02.015Z,102001.59
2023-05-08T07:21:30.776Z,102012.03
2023-05-08T07:23:59.789Z,102014.53
2023-05-08T07:26:28.517Z,102009.47
2023-05-08T07:28:57.573Z,102009.66
2023-05-08T07:31:27.626Z,102009.16
2023-05-08T07:33:56.715Z,102008.97
2023-05-08T07:36:25.331Z,102012.19
2023-05-08T07:38:54.281Z,102010.84
2023-05-08T07:41:23.164Z,102015.34
2023-05-08T07:43:52.158Z,102014.97
2023-05-08T07:46:21.764Z,102010.09
2023-05-08T07:48:52.073Z,102014.28
2023-05-08T07:51:20.883Z,102007.88
2023-05-08T07:53:51.191Z,102020.06
2023-05-08T07:56:19.908Z,102009.97
2023-05-08T07:58:48.877Z,102016.81
2023-05-08T08:01:18.458Z,102015.03
2023-05-08T08:03:47.897Z,102010.81
2023-05-08T08:06:18.600Z,102008.59
2023-05-08T08:08:47.597Z,102005.69
2023-05-08T08:11:16.363Z,102016.41
2023-05-08T08:13:45.336Z,102015.44
2023-05-08T08:16:14.040Z,102015.59
2023-05-08T08:18:42.997Z,102003.34
2023-05-08T08:21:11.721Z,102001.63
2023-05-08T08:23:42.080Z,101995.31
2023-05-08T08:26:10.814Z,101996.22
2023-05-08T08:28:39.724Z,101991.88
2023-05-08T08:31:08.567Z,101985.28
2023-05-08T08:33:37.616Z,101990.78
2023-05-08T08:36:13.644Z,101992.69
2023-05-08T08:38:44.047Z,101982.66
2023-05-08T08:41:15.750Z,101983.75
2023-05-08T08:43:44.776Z,101981.94
2023-05-08T08:46:15.986Z,101976.59
2023-05-08T08:48:47.958Z,101976.94
2023-05-08T08:51:28.442Z,101979.31
2023-05-08T08:54:12.505Z,101977.34
2023-05-08T08:56:43.050Z,101973.19
2023-05-08T08:59:14.521Z,101975.91
2023-05-08T09:01:48.736Z,101977.19
2023-05-08T09:04:18.365Z,101979.69
2023-05-08T09:06:48.078Z,101983.75
2023-05-08T09:09:18.404Z,101982.03
2023-05-08T09:11:48.425Z,101975.00
2023-05-08T09:14:17.393Z,101972.88
2023-05-08T09:16:46.536Z,101965.72
2023-05-08T09:19:16.517Z,101967.47
2023-05-08T09:21:46.336Z,101966.72
2023-05-08T09:24:15.790Z,101966.94
2023-05-08T09:26:45.824Z,101967.13
2023-05-08T09:29:17.268Z,101964.56
2023-05-08T09:31:49.067Z,101966.28
2023-05-08T09:34:27.980Z,101969.88
2023-05-08T09:36:57.525Z,101975.53
2023-05-08T09:39:27.653Z,101971.38
2023-05-08T09:42:02.861Z,101963.81
2023-05-08T09:44:46.523Z,101967.06
2023-05-08T09:47:16.901Z,101960.66
2023-05-08T09:49:59.303Z,101965.03
2023-05-08T09:52:28.956Z,101952.34
2023-05-08T09:55:02.855Z,101961.66
2023-05-08T09:57:36.461Z,101954.19
2023-05-08T10:00:10.324Z,101954.00
2023-05-08T10:02:42.512Z,101960.38
2023-05-08T10:05:26.297Z,101951.69
2023-05-08T10:07:55.241Z,101945.56
2023-05-08T10:10:27.483Z,101937.97
2023-05-08T10:12:59.710Z,101945.78
2023-05-08T10:15:32.180Z,101944.50
2023-05-08T10:18:06.600Z,101941.53
2023-05-08T10:20:39.921Z,101929.91
2023-05-08T10:23:15.658Z,101922.56
2023-05-08T10:25:48.416Z,101916.31
2023-05-08T10:28:32.442Z,101925.78
2023-05-08T10:31:05.506Z,101932.06
2023-05-08T10:33:36.561Z,101936.00
2023-05-08T10:36:07.664Z,101930.16
2023-05-08T10:38:38.318Z,101926.66
2023-05-08T10:41:07.806Z,101922.44
2023-05-08T10:43:43.516Z,101919.84
2023-05-08T10:46:23.877Z,101915.09
2023-05-08T10:49:06.596Z,101918.75
2023-05-08T10:51:46.336Z,101918.00
2023-05-08T10:54:24.693Z,101916.31
2023-05-08T10:56:53.700Z,101917.00
2023-05-08T10:59:23.908Z,101920.91
2023-05-08T11:01:53.504Z,101923.56
2023-05-08T11:04:24.251Z,101908.66
2023-05-08T11:06:54.012Z,101907.94
2023-05-08T11:09:24.663Z,101907.44
2023-05-08T11:12:08.339Z,101902.03
2023-05-08T11:14:43.709Z,101904.34
2023-05-08T11:17:12.825Z,101889.16
2023-05-08T11:19:58.177Z,101889.72
2023-05-08T11:22:30.200Z,101884.34
2023-05-08T11:25:08.775Z,101880.69
2023-05-08T11:28:20.208Z,101881.03
2023-05-08T11:30:56.424Z,101889.97
2023-05-08T11:33:32.080Z,101888.00
2023-05-08T11:36:12.673Z,101883.66
2023-05-08T11:38:44.013Z,101880.97
2023-05-08T11:41:22.801Z,101881.59
2023-05-08T11:44:20.543Z,101879.66
2023-05-08T11:46:54.050Z,101887.81
2023-05-08T11:49:29.018Z,101881.53
2023-05-08T11:52:00.759Z,101886.59
2023-05-08T11:54:32.746Z,101890.50
2023-05-08T11:57:01.883Z,101879.25
2023-05-08T11:59:36.665Z,101879.59
2023-05-08T12:02:09.188Z,101872.97
2023-05-08T12:04:46.902Z,101870.88
2023-05-08T12:07:16.485Z,101878.09
2023-05-08T12:09:47.581Z,101869.53
2023-05-08T12:12:16.409Z,101868.19
2023-05-08T12:14:45.395Z,101870.38
2023-05-08T12:17:19.324Z,101862.78
2023-05-08T12:19:48.328Z,101867.06
2023-05-08T12:22:17.003Z,101869.22
2023-05-08T12:24:46.103Z,101866.59
2023-05-08T12:27:14.902Z,101851.31
2023-05-08T12:29:46.707Z,101860.47
2023-05-08T12:32:17.037Z,101852.75
2023-05-08T12:34:46.378Z,101852.47
2023-05-08T12:37:25.847Z,101855.00
2023-05-08T12:39:55.223Z,101853.69
2023-05-08T12:42:23.979Z,101848.59
2023-05-08T12:44:54.329Z,101849.88
2023-05-08T12:47:26.801Z,101849.03
2023-05-08T12:49:59.494Z,101847.91
2023-05-08T12:52:29.923Z,101847.34
2023-05-08T12:54:58.977Z,101832.88
2023-05-08T12:57:27.748Z,101844.06
2023-05-08T13:00:06.038Z,101825.03
2023-05-08T13:02:41.680Z,101821.34
2023-05-08T13:05:21.818Z,101829.13
2023-05-08T13:07:51.531Z,101816.38
2023-05-08T13:10:23.489Z,101821.34
2023-05-08T13:12:53.318Z,101823.25
2023-05-08T13:15:23.953Z,101815.84
2023-05-08T13:17:54.153Z,101825.59
2023-05-08T13:20:23.648Z,101820.66
2023-05-08T13:22:52.436Z,101817.31
2023-05-08T13:25:21.363Z,101819.03
2023-05-08T13:27:50.051Z,101815.84
2023-05-08T13:30:19.086Z,101816.44
2023-05-08T13:32:47.781Z,101812.63
2023-05-08T13:35:18.929Z,101804.69
2023-05-08T13:37:48.360Z,101802.75
2023-05-08T13:40:18.974Z,101803.78
2023-05-08T13:42:47.881Z,101800.25
2023-05-08T13:45:18.589Z,101795.19
2023-05-08T13:47:48.714Z,101789.28
2023-05-08T13:50:21.822Z,101783.16
2023-05-08T13:52:53.218Z,101786.72
2023-05-08T13:55:24.342Z,101784.88
2023-05-08T13:57:53.115Z,101783.81
2023-05-08T14:00:22.321Z,101787.72
2023-05-08T14:02:53.174Z,101782.28
2023-05-08T14:05:23.797Z,101781.84
2023-05-08T14:07:52.549Z,101794.16
2023-05-08T14:10:21.774Z,101783.31
2023-05-08T14:12:50.546Z,101772.47
2023-05-08T14:15:19.755Z,101787.09
2023-05-08T14:17:48.677Z,101775.63
2023-05-08T14:20:17.759Z,101774.91
2023-05-08T14:22:47.772Z,101781.50
2023-05-08T14:25:16.926Z,101783.66
2023-05-08T14:27:45.628Z,101778.56
2023-05-08T14:30:16.010Z,101779.63
2023-05-08T14:32:44.707Z,101780.66
2023-05-08T14:35:14.439Z,101786.09
2023-05-08T14:37:43.385Z,101771.78
2023-05-08T14:40:14.193Z,101773.78
2023-05-08T14:42:42.928Z,101774.16
2023-05-08T14:45:12.926Z,101771.50
2023-05-08T14:47:41.917Z,101770.97
2023-05-08T14:50:12.229Z,101774.63
2023-05-08T14:52:40.958Z,101765.81
2023-05-08T14:55:11.429Z,101768.28
2023-05-08T14:57:41.745Z,101771.66
2023-05-08T15:00:12.886Z,101772.97
2023-05-08T15:02:42.103Z,101773.28
2023-05-08T15:05:19.204Z,101772.66
2023-05-08T15:07:50.068Z,101774.59
2023-05-08T15:10:19.156Z,101780.13
2023-05-08T15:12:49.261Z,101772.81
2023-05-08T15:15:18.296Z,101770.44
2023-05-08T15:17:47.012Z,101774.31
2023-05-08T15:20:15.991Z,101775.16
2023-05-08T15:22:44.726Z,101773.69
2023-05-08T15:25:14.418Z,101773.19
2023-05-08T15:27:43.375Z,101778.00
2023-05-08T15:30:15.539Z,101785.22
2023-05-08T15:32:44.331Z,101777.47
2023-05-08T15:35:13.749Z,101772.41
2023-05-08T15:37:42.562Z,101771.25
2023-05-08T15:40:13.183Z,101758.19
2023-05-08T15:42:41.859Z,101769.97
2023-05-08T15:45:13.051Z,101767.72
2023-05-08T15:47:41.863Z,101771.00
2023-05-08T15:50:11.967Z,101762.56
2023-05-08T15:52:40.578Z,101757.94
2023-05-08T15:55:11.190Z,101751.38
2023-05-08T15:57:40.137Z,101750.78
2023-05-08T16:00:10.939Z,101757.81
2023-05-08T16:02:41.049Z,101756.72
2023-05-08T16:05:11.210Z,101747.06
2023-05-08T16:07:40.313Z,101751.88
2023-05-08T16:10:11.048Z,101748.03
2023-05-08T16:12:39.719Z,101750.41
2023-05-08T16:15:09.578Z,101739.59
2023-05-08T16:17:38.278Z,101748.94
2023-05-08T16:20:12.486Z,101750.28
2023-05-08T16:22:41.800Z,101749.03
2023-05-08T16:25:11.857Z,101750.03
2023-05-08T16:27:40.810Z,101748.84
2023-05-08T16:30:11.924Z,101755.44
2023-05-08T16:32:40.920Z,101756.59
2023-05-08T16:35:12.185Z,101751.72
2023-05-08T16:37:41.059Z,101752.78
2023-05-08T16:40:11.802Z,101746.94
2023-05-08T16:42:40.453Z,101750.31
2023-05-08T16:45:11.406Z,101748.09
2023-05-08T16:47:40.250Z,101751.47
2023-05-08T16:50:12.362Z,101745.97
2023-05-08T16:52:41.177Z,101749.69
2023-05-08T16:55:11.546Z,101743.97
2023-05-08T16:57:40.466Z,101749.16
2023-05-08T17:00:10.760Z,101750.75
2023-05-08T17:02:39.525Z,101757.34
2023-05-08T17:05:10.762Z,101756.16
2023-05-08T17:07:39.819Z,101751.25
2023-05-08T17:10:10.604Z,101749.69
2023-05-08T17:12:39.386Z,101752.94
2023-05-08T17:15:09.765Z,101753.38
2023-05-08T17:17:38.734Z,101756.22
2023-05-08T17:20:11.614Z,101760.34
2023-05-08T17:22:41.326Z,101759.00
2023-05-08T17:25:11.595Z,101758.47
2023-05-08T17:27:40.433Z,101754.50
2023-05-08T17:30:12.500Z,101760.09
2023-05-08T17:32:41.537Z,101757.56
2023-05-08T17:35:12.203Z,101752.75
2023-05-08T17:37:40.906Z,101758.03
2023-05-08T17:40:11.870Z,101758.34
2023-05-08T17:42:40.743Z,101753.34
2023-05-08T17:45:10.407Z,101765.09
2023-05-08T17:47:40.261Z,101762.84
2023-05-08T17:50:11.995Z,101771.25
2023-05-08T17:52:41.204Z,101771.66
2023-05-08T17:55:11.582Z,101766.84
2023-05-08T17:57:40.409Z,101778.69
2023-05-08T18:00:11.260Z,101779.06
2023-05-08T18:02:41.479Z,101770.16
2023-05-08T18:05:12.050Z,101783.41
2023-05-08T18:07:40.976Z,101773.66
2023-05-08T18:10:10.947Z,101770.13
2023-05-08T18:12:39.734Z,101778.63
2023-05-08T18:15:09.911Z,101786.50
2023-05-08T18:17:38.677Z,101785.31
2023-05-08T18:20:09.973Z,101792.16
2023-05-08T18:22:40.187Z,101794.78
2023-05-08T18:25:12.607Z,101797.31
2023-05-08T18:27:42.918Z,101790.84
2023-05-08T18:30:14.151Z,101803.84
2023-05-08T18:32:44.145Z,101809.59
2023-05-08T18:35:13.663Z,101807.56
2023-05-08T18:37:43.909Z,101808.19
2023-05-08T18:40:14.375Z,101810.38
2023-05-08T18:42:43.326Z,101803.44
2023-05-08T18:45:13.148Z,101812.69
2023-05-08T18:47:41.808Z,101816.69
2023-05-08T18:50:12.174Z,101817.06
2023-05-08T18:52:41.140Z,101821.97
2023-05-08T18:55:11.817Z,101823.13
2023-05-08T18:57:40.406Z,101826.00
2023-05-08T19:00:10.952Z,101821.50
2023-05-08T19:02:39.879Z,101828.94
2023-05-08T19:05:09.663Z,101826.53
2023-05-08T19:07:38.390Z,101832.19
2023-05-08T19:10:09.528Z,101829.84
2023-05-08T19:12:39.696Z,101833.63
2023-05-08T19:15:13.313Z,101846.50
2023-05-08T19:17:42.740Z,101835.53
2023-05-08T19:20:14.590Z,101839.97
2023-05-08T19:22:43.680Z,101835.06
2023-05-08T19:25:13.635Z,101836.25
2023-05-08T19:27:43.661Z,101835.63
2023-05-08T19:30:13.925Z,101837.72
2023-05-08T19:32:43.170Z,101834.56
2023-05-08T19:35:12.203Z,101840.97
2023-05-08T19:37:40.928Z,101834.19
2023-05-08T19:40:11.741Z,101835.47
2023-05-08T19:42:40.590Z,101834.91
2023-05-08T19:45:12.655Z,101833.34
2023-05-08T19:47:41.412Z,101834.38
2023-05-08T19:50:12.507Z,101833.72
2023-05-08T19:52:41.407Z,101827.94
2023-05-08T19:55:10.833Z,101830.03
2023-05-08T19:57:39.652Z,101827.72
2023-05-08T20:00:12.198Z,101825.44
2023-05-08T20:02:41.315Z,101821.19
2023-05-08T20:05:21.812Z,101817.00
2023-05-08T20:07:51.839Z,101822.56
2023-05-08T20:10:20.963Z,101816.53
2023-05-08T20:12:49.692Z,101814.16
2023-05-08T20:15:20.580Z,101814.44
2023-05-08T20:17:49.291Z,101815.41
2023-05-08T20:20:18.354Z,101814.56
2023-05-08T20:22:47.014Z,101821.16
2023-05-08T20:25:16.244Z,101808.34
2023-05-08T20:27:44.938Z,101811.16
2023-05-08T20:30:14.751Z,101812.31
2023-05-08T20:32:45.001Z,101815.19
2023-05-08T20:35:14.905Z,101817.97
2023-05-08T20:37:48.247Z,101822.50
2023-05-08T20:40:17.460Z,101822.50
2023-05-08T20:42:46.297Z,101817.38
2023-05-08T20:45:15.247Z,101823.84
2023-05-08T20:47:45.303Z,101820.44
2023-05-08T20:50:16.119Z,101819.59
2023-05-08T20:52:45.931Z,101822.38
2023-05-08T20:55:15.198Z,101819.19
2023-05-08T20:57:44.195Z,101822.19
2023-05-08T21:00:14.444Z,101815.28
2023-05-08T21:02:44.745Z,101811.97
2023-05-08T21:05:14.142Z,101816.59
2023-05-08T21:07:43.044Z,101815.00
2023-05-08T21:10:13.002Z,101816.91
2023-05-08T21:12:44.515Z,101812.69
2023-05-08T21:15:13.829Z,101811.03
2023-05-08T21:17:44.234Z,101812.84
2023-05-08T21:20:14.441Z,101812.16
2023-05-08T21:22:43.443Z,101812.28
2023-05-08T21:25:19.176Z,101809.72
2023-05-08T21:27:47.856Z,101809.91
2023-05-08T21:30:16.907Z,101805.66
2023-05-08T21:32:47.733Z,101806.75
2023-05-08T21:35:17.413Z,101808.50
2023-05-08T21:37:46.312Z,101808.53
2023-05-08T21:40:15.372Z,101808.72
2023-05-08T21:42:44.029Z,101805.41
2023-05-08T21:45:13.469Z,101809.88
2023-05-08T21:47:42.365Z,101797.72
2023-05-08T21:50:13.138Z,101804.72
2023-05-08T21:52:42.096Z,101803.16
2023-05-08T21:55:11.690Z,101809.44
2023-05-08T21:57:40.493Z,101806.91
2023-05-08T22:00:10.993Z,101807.88
2023-05-08T22:02:48.398Z,101803.66
2023-05-08T22:05:18.960Z,101809.03
2023-05-08T22:07:47.686Z,101804.81
2023-05-08T22:10:16.590Z,101801.56
2023-05-08T22:12:45.278Z,101799.84
2023-05-08T22:15:28.581Z,101802.47
2023-05-08T22:17:58.861Z,101801.78
2023-05-08T22:20:29.618Z,101801.91
2023-05-08T22:22:58.193Z,101801.06
2023-05-08T22:25:27.393Z,101799.47
2023-05-08T22:27:56.049Z,101793.47
2023-05-08T22:30:25.007Z,101796.31
2023-05-08T22:32:57.548Z,101790.38
2023-05-08T22:35:29.016Z,101793.09
2023-05-08T22:37:58.390Z,101794.03
2023-05-08T22:40:28.341Z,101795.91
2023-05-08T22:42:58.879Z,101791.69
2023-05-08T22:45:28.919Z,101799.63
2023-05-08T22:47:57.979Z,101793.59
2023-05-08T22:50:28.396Z,101798.03
2023-05-08T22:52:57.100Z,101792.84
2023-05-08T22:55:26.018Z,101795.50
2023-05-08T22:57:54.685Z,101793.78
2023-05-08T23:00:23.879Z,101788.75
2023-05-08T23:02:52.616Z,101794.03
2023-05-08T23:05:21.801Z,101784.50
2023-05-08T23:07:52.034Z,101794.19
2023-05-08T23:10:20.922Z,101790.81
2023-05-08T23:12:49.535Z,101789.13
2023-05-08T23:15:21.090Z,101796.97
2023-05-08T23:17:50.333Z,101797.84
2023-05-08T23:20:19.747Z,101796.06
2023-05-08T23:22:48.426Z,101795.38
2023-05-08T23:25:18.788Z,101791.16
2023-05-08T23:27:47.431Z,101794.75
2023-05-08T23:30:17.023Z,101792.22
2023-05-08T23:32:45.933Z,101791.41
2023-05-08T23:35:15.201Z,101798.41
2023-05-08T23:37:43.969Z,101794.13
2023-05-08T23:40:14.012Z,101787.19
2023-05-08T23:42:44.373Z,101782.03
2023-05-08T23:45:13.661Z,101790.81
2023-05-08T23:47:42.492Z,101792.59
2023-05-08T23:50:13.138Z,101797.91
2023-05-08T23:52:42.709Z,101793.59
2023-05-08T23:55:12.328Z,101797.19
2023-05-08T23:57:41.252Z,101792.13
